PWSweather.com
Personal Weather Stations
Station Observations
KKYCRABO2
Cedar Creek Lake 840 Ky. Hwy. 39 N, Crab Orchard, KY 40419

Cedar Creek Lake 840 Ky. Hwy. 39 NCrab Orchard, KY 40419

Lat: 37.4736234544238, Lon: -84.5120286941528

Elevation: 952

Station Type: TYCON Power TP1080WC Pro

http://kbweather.net/

Latest ConditionsUpdated 8:00:02 PM EST Friday, Nov 28, 2014
Currently Today's Max Today's Min Today's Average
Temperature 33.3°F0.7°C 51.1°F10.6°C 8.8°F-12.9°C 30.9°F-0.6°C
Dew Point 25.6°F-3.6°C 43.1°F6.2°C 5.8°F-14.6°C 25.1°F-3.8°C
Winds 0.7 mph S1.1 kmh S 3.8 mph S6.1 kmh S - 0.7 mph 1.1 kmh
Wind Gusts 6.0 mph9.7 kmh 9.2 mph14.8 kmh - -
Humidity 73% 97% 59% 80%
Pressure 29.90 in1012.5 mb 30.16 in1021.3 mb 29.90 in1012.5 mb -
Precipitation - 0.01 in0.3 mm - -
Hour Temp Dew Point Humidity Winds Wind Gusts Pressure Precip Precip Rate Daily Precip Total
08:00 PM 33.3°F0.7°C 25.6°F-3.6°C 73% 0.7 mph S1.1 kmh S 6.0 mph9.7 kmh 29.90 in1012.5 mb 0.00 in0.0 mm 0.00 in/hr0.0 mm/hr 0.01 in0.3 mm
07:55 PM 33.1°F0.6°C 25.4°F-3.7°C 73% 1.6 mph S2.6 kmh S 5.4 mph8.7 kmh 29.91 in1012.9 mb 0.00 in0.0 mm 0.00 in/hr0.0 mm/hr 0.01 in0.3 mm
07:50 PM 32.9°F0.5°C 25.2°F-3.8°C 73% 3.1 mph S5.0 kmh S 5.4 mph8.7 kmh 29.90 in1012.5 mb 0.00 in0.0 mm 0.00 in/hr0.0 mm/hr 0.01 in0.3 mm
07:45 PM 51.1°F10.6°C 43.1°F6.2°C 74% 1.6 mph SSE2.6 kmh SSE 4.5 mph7.2 kmh 29.91 in1012.9 mb 0.00 in0.0 mm 0.00 in/hr0.0 mm/hr 0.01 in0.3 mm
07:40 PM 32.9°F0.5°C 25.5°F-3.6°C 74% 0.7 mph SSE1.1 kmh SSE 4.5 mph7.2 kmh 29.91 in1012.9 mb 0.00 in0.0 mm 0.00 in/hr0.0 mm/hr 0.01 in0.3 mm
07:35 PM 33.1°F0.6°C 25.4°F-3.7°C 73% 2.2 mph S3.5 kmh S 5.4 mph8.7 kmh 29.91 in1012.9 mb 0.00 in0.0 mm 0.00 in/hr0.0 mm/hr 0.01 in0.3 mm
07:30 PM 33.1°F0.6°C 25.4°F-3.7°C 73% 2.2 mph S3.5 kmh S 6.9 mph11.1 kmh 29.91 in1012.9 mb 0.00 in0.0 mm 0.00 in/hr0.0 mm/hr 0.01 in0.3 mm
07:25 PM 33.1°F0.6°C 25.4°F-3.7°C 73% 2.2 mph S3.5 kmh S 6.9 mph11.1 kmh 29.91 in1012.9 mb 0.00 in0.0 mm 0.00 in/hr0.0 mm/hr 0.01 in0.3 mm
07:20 PM 33.3°F0.7°C 25.2°F-3.8°C 72% 3.1 mph S5.0 kmh S 6.9 mph11.1 kmh 29.91 in1012.9 mb 0.00 in0.0 mm 0.00 in/hr0.0 mm/hr 0.01 in0.3 mm
07:15 PM 33.3°F0.7°C 25.2°F-3.8°C 72% 3.1 mph S5.0 kmh S 6.9 mph11.1 kmh 29.92 in1013.2 mb 0.00 in0.0 mm 0.00 in/hr0.0 mm/hr 0.01 in0.3 mm
07:10 PM 33.3°F0.7°C 24.9°F-3.9°C 71% 2.2 mph S3.5 kmh S 6.0 mph9.7 kmh 29.93 in1013.5 mb 0.00 in0.0 mm 0.00 in/hr0.0 mm/hr 0.01 in0.3 mm
07:05 PM 33.4°F0.8°C 25.1°F-3.8°C 71% 2.2 mph S3.5 kmh S 5.4 mph8.7 kmh 29.93 in1013.5 mb 0.00 in0.0 mm 0.00 in/hr0.0 mm/hr 0.01 in0.3 mm
07:00 PM 33.4°F0.8°C 24.7°F-4.1°C 70% 2.2 mph S3.5 kmh S 6.0 mph9.7 kmh 29.93 in1013.5 mb 0.00 in0.0 mm 0.00 in/hr0.0 mm/hr 0.01 in0.3 mm
06:55 PM 33.6°F0.9°C 24.6°F-4.1°C 69% 1.6 mph S2.6 kmh S 6.0 mph9.7 kmh 29.93 in1013.5 mb 0.00 in0.0 mm 0.00 in/hr0.0 mm/hr 0.01 in0.3 mm
06:50 PM 33.6°F0.9°C 24.2°F-4.3°C 68% 2.2 mph S3.5 kmh S 4.5 mph7.2 kmh 29.93 in1013.5 mb 0.00 in0.0 mm 0.00 in/hr0.0 mm/hr 0.01 in0.3 mm
06:45 PM 33.6°F0.9°C 24.2°F-4.3°C 68% 2.2 mph SSE3.5 kmh SSE 4.5 mph7.2 kmh 29.93 in1013.5 mb 0.00 in0.0 mm 0.00 in/hr0.0 mm/hr 0.01 in0.3 mm
06:40 PM 33.8°F1.0°C 24.0°F-4.4°C 67% 0.7 mph SE1.1 kmh SE 3.8 mph6.1 kmh 29.93 in1013.5 mb 0.00 in0.0 mm 0.00 in/hr0.0 mm/hr 0.01 in0.3 mm
06:35 PM 34.0°F1.1°C 24.2°F-4.3°C 67% 0.7 mph SSE1.1 kmh SSE 4.5 mph7.2 kmh 29.93 in1013.5 mb 0.00 in0.0 mm 0.00 in/hr0.0 mm/hr 0.01 in0.3 mm
06:30 PM 34.0°F1.1°C 24.2°F-4.3°C 67% 0.7 mph SSE1.1 kmh SSE 4.5 mph7.2 kmh 29.94 in1013.9 mb 0.00 in0.0 mm 0.00 in/hr0.0 mm/hr 0.01 in0.3 mm
06:25 PM 34.2°F1.2°C 24.0°F-4.4°C 66% 1.6 mph SSE2.6 kmh SSE 3.8 mph6.1 kmh 29.94 in1013.9 mb 0.00 in0.0 mm 0.00 in/hr0.0 mm/hr 0.01 in0.3 mm
06:20 PM 34.2°F1.2°C 24.0°F-4.4°C 66% Calm Calm 3.8 mph6.1 kmh 29.94 in1013.9 mb 0.00 in0.0 mm 0.00 in/hr0.0 mm/hr 0.01 in0.3 mm
06:15 PM 34.3°F1.3°C 24.2°F-4.3°C 66% Calm Calm 3.8 mph6.1 kmh 29.94 in1013.9 mb 0.00 in0.0 mm 0.00 in/hr0.0 mm/hr 0.01 in0.3 mm
06:10 PM 39.7°F4.3°C 29.3°F-1.5°C 66% Calm Calm 3.8 mph6.1 kmh 29.94 in1013.9 mb 0.00 in0.0 mm 0.00 in/hr0.0 mm/hr 0.01 in0.3 mm
06:05 PM 34.3°F1.3°C 24.2°F-4.3°C 66% 0.7 mph SE1.1 kmh SE 3.1 mph5.0 kmh 29.94 in1013.9 mb 0.00 in0.0 mm 0.00 in/hr0.0 mm/hr 0.01 in0.3 mm
06:00 PM 34.3°F1.3°C 24.2°F-4.3°C 66% 0.7 mph E1.1 kmh E 3.1 mph5.0 kmh 29.95 in1014.2 mb 0.00 in0.0 mm 0.00 in/hr0.0 mm/hr 0.01 in0.3 mm
05:55 PM 34.5°F1.4°C 24.7°F-4.1°C 67% Calm Calm 2.2 mph3.5 kmh 29.94 in1013.9 mb 0.00 in0.0 mm 0.00 in/hr0.0 mm/hr 0.01 in0.3 mm
05:50 PM 34.7°F1.5°C 24.5°F-4.2°C 66% Calm Calm 2.2 mph3.5 kmh 29.94 in1013.9 mb 0.00 in0.0 mm 0.00 in/hr0.0 mm/hr 0.01 in0.3 mm
05:45 PM 34.9°F1.6°C 24.7°F-4.1°C 66% Calm Calm 3.1 mph5.0 kmh 29.94 in1013.9 mb 0.00 in0.0 mm 0.00 in/hr0.0 mm/hr 0.01 in0.3 mm
05:40 PM 35.1°F1.7°C 24.9°F-3.9°C 66% 0.7 mph E1.1 kmh E 3.1 mph5.0 kmh 29.94 in1013.9 mb 0.00 in0.0 mm 0.00 in/hr0.0 mm/hr 0.01 in0.3 mm
05:35 PM 35.2°F1.8°C 25.0°F-3.9°C 66% Calm Calm 3.1 mph5.0 kmh 29.94 in1013.9 mb 0.00 in0.0 mm 0.00 in/hr0.0 mm/hr 0.01 in0.3 mm
05:30 PM 35.6°F2.0°C 25.0°F-3.9°C 65% Calm Calm 3.8 mph6.1 kmh 29.95 in1014.2 mb 0.00 in0.0 mm 0.00 in/hr0.0 mm/hr 0.01 in0.3 mm
05:25 PM 35.8°F2.1°C 25.2°F-3.8°C 65% 0.7 mph S1.1 kmh S 3.8 mph6.1 kmh 29.95 in1014.2 mb 0.00 in0.0 mm 0.00 in/hr0.0 mm/hr 0.01 in0.3 mm
05:20 PM 36.1°F2.3°C 25.2°F-3.8°C 64% Calm Calm 3.8 mph6.1 kmh 29.95 in1014.2 mb 0.00 in0.0 mm 0.00 in/hr0.0 mm/hr 0.01 in0.3 mm
05:15 PM 36.5°F2.5°C 25.1°F-3.8°C 63% 0.7 mph ESE1.1 kmh ESE 3.8 mph6.1 kmh 29.95 in1014.2 mb 0.00 in0.0 mm 0.00 in/hr0.0 mm/hr 0.01 in0.3 mm
05:10 PM 36.9°F2.7°C 25.5°F-3.6°C 63% Calm Calm 3.1 mph5.0 kmh 29.95 in1014.2 mb 0.00 in0.0 mm 0.00 in/hr0.0 mm/hr 0.01 in0.3 mm
05:05 PM 37.2°F2.9°C 25.4°F-3.7°C 62% Calm Calm 6.0 mph9.7 kmh 29.95 in1014.2 mb 0.00 in0.0 mm 0.00 in/hr0.0 mm/hr 0.01 in0.3 mm
05:00 PM 37.2°F2.9°C 25.4°F-3.7°C 62% Calm Calm 6.0 mph9.7 kmh 29.96 in1014.6 mb 0.00 in0.0 mm 0.00 in/hr0.0 mm/hr 0.01 in0.3 mm
04:55 PM 37.4°F3.0°C 25.2°F-3.8°C 61% Calm Calm 6.9 mph11.1 kmh 29.95 in1014.2 mb 0.00 in0.0 mm 0.00 in/hr0.0 mm/hr 0.01 in0.3 mm
04:50 PM 37.8°F3.2°C 25.1°F-3.8°C 60% 1.6 mph WSW2.6 kmh WSW 6.9 mph11.1 kmh 29.95 in1014.2 mb 0.00 in0.0 mm 0.00 in/hr0.0 mm/hr 0.01 in0.3 mm
04:45 PM 37.8°F3.2°C 25.5°F-3.6°C 61% 2.2 mph SSW3.5 kmh SSW 7.6 mph12.2 kmh 29.95 in1014.2 mb 0.00 in0.0 mm 0.00 in/hr0.0 mm/hr 0.01 in0.3 mm
04:40 PM 37.6°F3.1°C 25.4°F-3.7°C 61% 0.7 mph S1.1 kmh S 9.2 mph14.8 kmh 29.95 in1014.2 mb 0.00 in0.0 mm 0.00 in/hr0.0 mm/hr 0.01 in0.3 mm
04:35 PM 37.8°F3.2°C 25.5°F-3.6°C 61% 1.6 mph S2.6 kmh S 9.2 mph14.8 kmh 29.95 in1014.2 mb 0.00 in0.0 mm 0.00 in/hr0.0 mm/hr 0.01 in0.3 mm
04:30 PM 37.9°F3.3°C 25.7°F-3.5°C 61% 1.6 mph ENE2.6 kmh ENE 6.0 mph9.7 kmh 29.96 in1014.6 mb 0.00 in0.0 mm 0.00 in/hr0.0 mm/hr 0.01 in0.3 mm
04:25 PM 37.8°F3.2°C 25.1°F-3.8°C 60% 0.7 mph ESE1.1 kmh ESE 6.9 mph11.1 kmh 29.95 in1014.2 mb 0.00 in0.0 mm 0.00 in/hr0.0 mm/hr 0.01 in0.3 mm
04:20 PM 37.9°F3.3°C 25.7°F-3.5°C 61% 1.6 mph S2.6 kmh S 8.3 mph13.4 kmh 29.96 in1014.6 mb 0.00 in0.0 mm 0.00 in/hr0.0 mm/hr 0.01 in0.3 mm
04:15 PM 38.1°F3.4°C 25.5°F-3.6°C 60% Calm Calm 8.3 mph13.4 kmh 29.96 in1014.6 mb 0.00 in0.0 mm 0.00 in/hr0.0 mm/hr 0.01 in0.3 mm
04:10 PM 38.7°F3.7°C 25.6°F-3.6°C 59% 2.2 mph NE3.5 kmh NE 3.8 mph6.1 kmh 29.96 in1014.6 mb 0.00 in0.0 mm 0.00 in/hr0.0 mm/hr 0.01 in0.3 mm
04:05 PM 39.6°F4.2°C 26.8°F-2.9°C 60% 1.6 mph NE2.6 kmh NE 4.5 mph7.2 kmh 29.96 in1014.6 mb 0.00 in0.0 mm 0.00 in/hr0.0 mm/hr 0.01 in0.3 mm
04:00 PM 39.4°F4.1°C 26.7°F-2.9°C 60% Calm Calm 5.4 mph8.7 kmh 29.97 in1014.9 mb 0.00 in0.0 mm 0.00 in/hr0.0 mm/hr 0.01 in0.3 mm
03:55 PM 38.5°F3.6°C 26.2°F-3.2°C 61% 1.6 mph SSE2.6 kmh SSE 6.0 mph9.7 kmh 29.97 in1014.9 mb 0.00 in0.0 mm 0.00 in/hr0.0 mm/hr 0.01 in0.3 mm
03:50 PM 38.5°F3.6°C 26.6°F-3.0°C 62% 2.2 mph S3.5 kmh S 6.9 mph11.1 kmh 29.97 in1014.9 mb 0.00 in0.0 mm 0.00 in/hr0.0 mm/hr 0.01 in0.3 mm
03:45 PM 38.7°F3.7°C 26.4°F-3.1°C 61% 3.1 mph SE5.0 kmh SE 6.9 mph11.1 kmh 29.97 in1014.9 mb 0.00 in0.0 mm 0.00 in/hr0.0 mm/hr 0.01 in0.3 mm
03:40 PM 38.8°F3.8°C 26.6°F-3.0°C 61% 1.6 mph WSW2.6 kmh WSW 6.0 mph9.7 kmh 29.98 in1015.2 mb 0.00 in0.0 mm 0.00 in/hr0.0 mm/hr 0.01 in0.3 mm
03:35 PM 38.5°F3.6°C 25.8°F-3.4°C 60% 0.7 mph SSW1.1 kmh SSW 6.9 mph11.1 kmh 29.98 in1015.2 mb 0.00 in0.0 mm 0.00 in/hr0.0 mm/hr 0.01 in0.3 mm
03:30 PM 38.1°F3.4°C 26.3°F-3.2°C 62% Calm Calm 7.6 mph12.2 kmh 29.98 in1015.2 mb 0.00 in0.0 mm 0.00 in/hr0.0 mm/hr 0.01 in0.3 mm
03:25 PM 38.3°F3.5°C 26.4°F-3.1°C 62% 2.2 mph S3.5 kmh S 8.3 mph13.4 kmh 29.98 in1015.2 mb 0.00 in0.0 mm 0.00 in/hr0.0 mm/hr 0.01 in0.3 mm
03:20 PM 38.3°F3.5°C 26.8°F-2.9°C 63% 1.6 mph S2.6 kmh S 8.3 mph13.4 kmh 29.98 in1015.2 mb 0.00 in0.0 mm 0.00 in/hr0.0 mm/hr 0.01 in0.3 mm
03:15 PM 38.3°F3.5°C 26.8°F-2.9°C 63% Calm Calm 7.6 mph12.2 kmh 29.98 in1015.2 mb 0.00 in0.0 mm 0.00 in/hr0.0 mm/hr 0.01 in0.3 mm
03:10 PM 38.5°F3.6°C 26.6°F-3.0°C 62% 2.2 mph E3.5 kmh E 7.6 mph12.2 kmh 29.98 in1015.2 mb 0.00 in0.0 mm 0.00 in/hr0.0 mm/hr 0.01 in0.3 mm
03:05 PM 37.9°F3.3°C 26.1°F-3.3°C 62% Calm Calm 6.0 mph9.7 kmh 29.99 in1015.6 mb 0.00 in0.0 mm 0.00 in/hr0.0 mm/hr 0.01 in0.3 mm
03:00 PM 37.8°F3.2°C 25.9°F-3.4°C 62% 2.2 mph SW3.5 kmh SW 7.6 mph12.2 kmh 29.98 in1015.2 mb 0.00 in0.0 mm 0.00 in/hr0.0 mm/hr 0.01 in0.3 mm
02:55 PM 37.8°F3.2°C 25.5°F-3.6°C 61% 3.1 mph S5.0 kmh S 7.6 mph12.2 kmh 29.98 in1015.2 mb 0.00 in0.0 mm 0.00 in/hr0.0 mm/hr 0.01 in0.3 mm
02:50 PM 37.8°F3.2°C 26.7°F-2.9°C 64% 1.6 mph S2.6 kmh S 4.5 mph7.2 kmh 29.99 in1015.6 mb 0.00 in0.0 mm 0.00 in/hr0.0 mm/hr 0.01 in0.3 mm
02:45 PM 37.8°F3.2°C 26.3°F-3.2°C 63% 1.6 mph SE2.6 kmh SE 6.9 mph11.1 kmh 29.99 in1015.6 mb 0.00 in0.0 mm 0.00 in/hr0.0 mm/hr 0.01 in0.3 mm
02:40 PM 37.6°F3.1°C 26.5°F-3.1°C 64% 1.6 mph SSE2.6 kmh SSE 7.6 mph12.2 kmh 29.99 in1015.6 mb 0.00 in0.0 mm 0.00 in/hr0.0 mm/hr 0.01 in0.3 mm
02:35 PM 37.9°F3.3°C 26.9°F-2.8°C 64% 2.2 mph S3.5 kmh S 7.6 mph12.2 kmh 30.00 in1015.9 mb 0.00 in0.0 mm 0.00 in/hr0.0 mm/hr 0.01 in0.3 mm
02:30 PM 38.5°F3.6°C 27.4°F-2.6°C 64% 2.2 mph NW3.5 kmh NW 5.4 mph8.7 kmh 30.00 in1015.9 mb 0.00 in0.0 mm 0.00 in/hr0.0 mm/hr 0.01 in0.3 mm
02:25 PM 37.9°F3.3°C 26.9°F-2.8°C 64% 1.6 mph WSW2.6 kmh WSW 6.0 mph9.7 kmh 30.00 in1015.9 mb 0.00 in0.0 mm 0.00 in/hr0.0 mm/hr 0.01 in0.3 mm
02:20 PM 37.4°F3.0°C 26.7°F-2.9°C 65% Calm Calm 7.6 mph12.2 kmh 30.01 in1016.3 mb 0.00 in0.0 mm 0.00 in/hr0.0 mm/hr 0.01 in0.3 mm
02:15 PM 37.0°F2.8°C 26.0°F-3.3°C 64% 1.6 mph WSW2.6 kmh WSW 7.6 mph12.2 kmh 30.01 in1016.3 mb 0.00 in0.0 mm 0.00 in/hr0.0 mm/hr 0.01 in0.3 mm
02:10 PM 36.5°F2.5°C 25.1°F-3.8°C 63% 2.2 mph W3.5 kmh W 6.9 mph11.1 kmh 30.01 in1016.3 mb 0.00 in0.0 mm 0.00 in/hr0.0 mm/hr 0.01 in0.3 mm
02:05 PM 37.0°F2.8°C 26.0°F-3.3°C 64% 2.2 mph W3.5 kmh W 6.9 mph11.1 kmh 30.02 in1016.6 mb 0.00 in0.0 mm 0.00 in/hr0.0 mm/hr 0.01 in0.3 mm
02:00 PM 36.7°F2.6°C 26.8°F-2.9°C 67% 1.6 mph SE2.6 kmh SE 6.9 mph11.1 kmh 30.02 in1016.6 mb 0.00 in0.0 mm 0.00 in/hr0.0 mm/hr 0.01 in0.3 mm
01:55 PM 36.1°F2.3°C 26.3°F-3.2°C 67% 0.7 mph SE1.1 kmh SE 6.9 mph11.1 kmh 30.01 in1016.3 mb 0.00 in0.0 mm 0.00 in/hr0.0 mm/hr 0.01 in0.3 mm
01:50 PM 36.3°F2.4°C 26.1°F-3.3°C 66% 0.7 mph NW1.1 kmh NW 5.4 mph8.7 kmh 30.02 in1016.6 mb 0.00 in0.0 mm 0.00 in/hr0.0 mm/hr 0.01 in0.3 mm
01:45 PM 36.5°F2.5°C 26.2°F-3.2°C 66% 1.6 mph WSW2.6 kmh WSW 6.0 mph9.7 kmh 30.02 in1016.6 mb 0.00 in0.0 mm 0.00 in/hr0.0 mm/hr 0.01 in0.3 mm
01:40 PM 36.3°F2.4°C 27.1°F-2.7°C 69% 3.1 mph SW5.0 kmh SW 6.0 mph9.7 kmh 30.02 in1016.6 mb 0.00 in0.0 mm 0.00 in/hr0.0 mm/hr 0.01 in0.3 mm
01:35 PM 36.1°F2.3°C 26.6°F-3.0°C 68% 3.8 mph SE6.1 kmh SE 6.0 mph9.7 kmh 30.04 in1017.3 mb 0.00 in0.0 mm 0.00 in/hr0.0 mm/hr 0.01 in0.3 mm
01:31 PM 35.1°F1.7°C 24.8°F-4.0°C 66% 0.7 mph W1.1 kmh W 3.1 mph5.0 kmh 30.05 in1017.6 mb 0.00 in0.0 mm 0.00 in/hr0.0 mm/hr 0.01 in0.3 mm
01:28 PM 35.4°F1.9°C 25.5°F-3.6°C 67% 1.6 mph S2.6 kmh S 4.5 mph7.2 kmh 30.04 in1017.3 mb 0.00 in0.0 mm 0.00 in/hr0.0 mm/hr 0.01 in0.3 mm
01:23 PM 35.1°F1.7°C 25.6°F-3.6°C 68% Calm Calm 3.1 mph5.0 kmh 30.04 in1017.3 mb 0.00 in0.0 mm 0.00 in/hr0.0 mm/hr 0.01 in0.3 mm
01:18 PM 34.9°F1.6°C 25.7°F-3.5°C 69% 0.7 mph WSW1.1 kmh WSW 3.1 mph5.0 kmh 30.04 in1017.3 mb 0.00 in0.0 mm 0.00 in/hr0.0 mm/hr 0.01 in0.3 mm
01:10 PM 35.2°F1.8°C 25.8°F-3.4°C 68% Calm Calm 6.0 mph9.7 kmh 30.05 in1017.6 mb 0.00 in0.0 mm 0.00 in/hr0.0 mm/hr 0.01 in0.3 mm
01:05 PM 35.8°F2.1°C 24.8°F-4.0°C 64% 0.7 mph NW1.1 kmh NW 6.0 mph9.7 kmh 30.06 in1017.9 mb 0.00 in0.0 mm 0.00 in/hr0.0 mm/hr 0.01 in0.3 mm
01:00 PM 36.5°F2.5°C 25.9°F-3.4°C 65% Calm Calm 6.9 mph11.1 kmh 30.05 in1017.6 mb 0.00 in0.0 mm 0.00 in/hr0.0 mm/hr 0.01 in0.3 mm
12:55 PM 36.7°F2.6°C 26.8°F-2.9°C 67% 0.7 mph S1.1 kmh S 7.6 mph12.2 kmh 30.05 in1017.6 mb 0.00 in0.0 mm 0.00 in/hr0.0 mm/hr 0.01 in0.3 mm
12:50 PM 37.6°F3.1°C 26.5°F-3.1°C 64% 3.8 mph SW6.1 kmh SW 7.6 mph12.2 kmh 30.06 in1017.9 mb 0.00 in0.0 mm 0.00 in/hr0.0 mm/hr 0.01 in0.3 mm
12:45 PM 37.4°F3.0°C 25.6°F-3.6°C 62% 1.6 mph SW2.6 kmh SW 6.0 mph9.7 kmh 30.06 in1017.9 mb 0.00 in0.0 mm 0.00 in/hr0.0 mm/hr 0.01 in0.3 mm
12:40 PM 37.4°F3.0°C 26.4°F-3.1°C 64% 1.6 mph S2.6 kmh S 7.6 mph12.2 kmh 30.06 in1017.9 mb 0.01 in0.3 mm 0.00 in/hr0.0 mm/hr 0.01 in0.3 mm
12:35 PM 37.0°F2.8°C 27.8°F-2.3°C 69% 1.6 mph S2.6 kmh S 7.6 mph12.2 kmh 30.06 in1017.9 mb 0.01 in0.3 mm 0.00 in/hr0.0 mm/hr 0.01 in0.3 mm
12:30 PM 36.5°F2.5°C 27.7°F-2.4°C 70% 3.8 mph S6.1 kmh S 7.6 mph12.2 kmh 30.07 in1018.3 mb 0.01 in0.3 mm 0.00 in/hr0.0 mm/hr 0.01 in0.3 mm
12:25 PM 35.4°F1.9°C 26.3°F-3.2°C 69% 0.7 mph S1.1 kmh S 8.3 mph13.4 kmh 30.07 in1018.3 mb 0.01 in0.3 mm 0.00 in/hr0.0 mm/hr 0.01 in0.3 mm
12:20 PM 35.8°F2.1°C 26.6°F-3.0°C 69% 3.1 mph SSW5.0 kmh SSW 8.3 mph13.4 kmh 30.08 in1018.6 mb 0.01 in0.3 mm 0.00 in/hr0.0 mm/hr 0.01 in0.3 mm
12:15 PM 36.5°F2.5°C 27.7°F-2.4°C 70% 1.6 mph S2.6 kmh S 6.9 mph11.1 kmh 30.08 in1018.6 mb 0.01 in0.3 mm 0.00 in/hr0.0 mm/hr 0.01 in0.3 mm
12:10 PM 36.0°F2.2°C 27.1°F-2.7°C 70% 1.6 mph SSW2.6 kmh SSW 6.9 mph11.1 kmh 30.08 in1018.6 mb 0.01 in0.3 mm 0.00 in/hr0.0 mm/hr 0.01 in0.3 mm
12:05 PM 35.1°F1.7°C 25.6°F-3.6°C 68% 3.1 mph S5.0 kmh S 6.9 mph11.1 kmh 30.09 in1019.0 mb 0.01 in0.3 mm 0.00 in/hr0.0 mm/hr 0.01 in0.3 mm
12:00 PM 34.5°F1.4°C 25.8°F-3.4°C 70% 1.6 mph S2.6 kmh S 7.6 mph12.2 kmh 30.10 in1019.3 mb 0.01 in0.3 mm 0.00 in/hr0.0 mm/hr 0.01 in0.3 mm
11:55 AM 34.3°F1.3°C 25.6°F-3.6°C 70% 3.1 mph S5.0 kmh S 7.6 mph12.2 kmh 30.10 in1019.3 mb 0.01 in0.3 mm 0.00 in/hr0.0 mm/hr 0.01 in0.3 mm
11:50 AM 35.1°F1.7°C 25.2°F-3.8°C 67% 3.1 mph S5.0 kmh S 7.6 mph12.2 kmh 30.10 in1019.3 mb 0.01 in0.3 mm 0.00 in/hr0.0 mm/hr 0.01 in0.3 mm
11:45 AM 36.3°F2.4°C 25.0°F-3.9°C 63% 1.6 mph SSE2.6 kmh SSE 6.0 mph9.7 kmh 30.10 in1019.3 mb 0.01 in0.3 mm 0.12 in/hr3.0 mm/hr 0.01 in0.3 mm
11:40 AM 37.6°F3.1°C 26.5°F-3.1°C 64% Calm Calm 5.4 mph8.7 kmh 30.11 in1019.6 mb 0.00 in0.0 mm 0.00 in/hr0.0 mm/hr 0.00 in0.0 mm
11:35 AM 37.4°F3.0°C 27.8°F-2.3°C 68% 1.6 mph SE2.6 kmh SE 7.6 mph12.2 kmh 30.10 in1019.3 mb 0.00 in0.0 mm 0.00 in/hr0.0 mm/hr 0.00 in0.0 mm
11:30 AM 37.2°F2.9°C 27.3°F-2.6°C 67% 0.7 mph S1.1 kmh S 7.6 mph12.2 kmh 30.11 in1019.6 mb 0.00 in0.0 mm 0.00 in/hr0.0 mm/hr 0.00 in0.0 mm
11:25 AM 34.2°F1.2°C 25.1°F-3.8°C 69% 2.2 mph S3.5 kmh S 6.9 mph11.1 kmh 30.11 in1019.6 mb 0.00 in0.0 mm 0.00 in/hr0.0 mm/hr 0.00 in0.0 mm
11:20 AM 35.8°F2.1°C 27.0°F-2.8°C 70% 0.7 mph SE1.1 kmh SE 4.5 mph7.2 kmh 30.11 in1019.6 mb 0.00 in0.0 mm 0.00 in/hr0.0 mm/hr 0.00 in0.0 mm
11:15 AM 35.6°F2.0°C 27.5°F-2.5°C 72% 0.7 mph W1.1 kmh W 4.5 mph7.2 kmh 30.11 in1019.6 mb 0.00 in0.0 mm 0.00 in/hr0.0 mm/hr 0.00 in0.0 mm
11:10 AM 34.7°F1.5°C 26.3°F-3.2°C 71% Calm Calm 4.5 mph7.2 kmh 30.11 in1019.6 mb 0.00 in0.0 mm 0.00 in/hr0.0 mm/hr 0.00 in0.0 mm
11:05 AM 34.3°F1.3°C 27.3°F-2.6°C 75% Calm Calm 4.5 mph7.2 kmh 30.12 in1020.0 mb 0.00 in0.0 mm 0.00 in/hr0.0 mm/hr 0.00 in0.0 mm
11:00 AM 34.3°F1.3°C 27.3°F-2.6°C 75% Calm Calm 4.5 mph7.2 kmh 30.12 in1020.0 mb 0.00 in0.0 mm 0.00 in/hr0.0 mm/hr 0.00 in0.0 mm
10:55 AM 33.4°F0.8°C 25.4°F-3.7°C 72% 1.6 mph WSW2.6 kmh WSW 5.4 mph8.7 kmh 30.12 in1020.0 mb 0.00 in0.0 mm 0.00 in/hr0.0 mm/hr 0.00 in0.0 mm
10:50 AM 33.6°F0.9°C 26.9°F-2.8°C 76% 0.7 mph SSW1.1 kmh SSW 7.6 mph12.2 kmh 30.13 in1020.3 mb 0.00 in0.0 mm 0.00 in/hr0.0 mm/hr 0.00 in0.0 mm
10:45 AM 33.3°F0.7°C 26.9°F-2.8°C 77% 1.6 mph S2.6 kmh S 7.6 mph12.2 kmh 30.13 in1020.3 mb 0.00 in0.0 mm 0.00 in/hr0.0 mm/hr 0.00 in0.0 mm
10:40 AM 33.6°F0.9°C 26.6°F-3.0°C 75% 3.8 mph S6.1 kmh S 8.3 mph13.4 kmh 30.14 in1020.7 mb 0.00 in0.0 mm 0.00 in/hr0.0 mm/hr 0.00 in0.0 mm
10:35 AM 33.1°F0.6°C 26.7°F-2.9°C 77% 0.7 mph S1.1 kmh S 8.3 mph13.4 kmh 30.13 in1020.3 mb 0.00 in0.0 mm 0.00 in/hr0.0 mm/hr 0.00 in0.0 mm
10:30 AM 32.4°F0.2°C 26.3°F-3.2°C 78% 2.2 mph S3.5 kmh S 6.0 mph9.7 kmh 30.13 in1020.3 mb 0.00 in0.0 mm 0.00 in/hr0.0 mm/hr 0.00 in0.0 mm
10:25 AM 31.3°F-0.4°C 26.7°F-2.9°C 83% 0.7 mph S1.1 kmh S 5.4 mph8.7 kmh 30.14 in1020.7 mb 0.00 in0.0 mm 0.00 in/hr0.0 mm/hr 0.00 in0.0 mm
10:20 AM 30.2°F-1.0°C 25.7°F-3.5°C 83% 0.7 mph SSW1.1 kmh SSW 5.4 mph8.7 kmh 30.14 in1020.7 mb 0.00 in0.0 mm 0.00 in/hr0.0 mm/hr 0.00 in0.0 mm
10:15 AM 30.2°F-1.0°C 26.0°F-3.3°C 84% Calm Calm 5.4 mph8.7 kmh 30.14 in1020.7 mb 0.00 in0.0 mm 0.00 in/hr0.0 mm/hr 0.00 in0.0 mm
10:10 AM 30.0°F-1.1°C 26.9°F-2.8°C 88% 1.6 mph S2.6 kmh S 5.4 mph8.7 kmh 30.13 in1020.3 mb 0.00 in0.0 mm 0.00 in/hr0.0 mm/hr 0.00 in0.0 mm
10:05 AM 28.6°F-1.9°C 24.7°F-4.1°C 85% 0.7 mph S1.1 kmh S 5.4 mph8.7 kmh 30.13 in1020.3 mb 0.00 in0.0 mm 0.00 in/hr0.0 mm/hr 0.00 in0.0 mm
10:00 AM 28.6°F-1.9°C 24.7°F-4.1°C 85% 0.7 mph SSE1.1 kmh SSE 5.4 mph8.7 kmh 30.13 in1020.3 mb 0.00 in0.0 mm 0.00 in/hr0.0 mm/hr 0.00 in0.0 mm
09:55 AM 28.6°F-1.9°C 24.9°F-3.9°C 86% 0.7 mph SSE1.1 kmh SSE 3.8 mph6.1 kmh 30.14 in1020.7 mb 0.00 in0.0 mm 0.00 in/hr0.0 mm/hr 0.00 in0.0 mm
09:50 AM 28.2°F-2.1°C 25.1°F-3.8°C 88% Calm Calm 3.1 mph5.0 kmh 30.13 in1020.3 mb 0.00 in0.0 mm 0.00 in/hr0.0 mm/hr 0.00 in0.0 mm
09:45 AM 28.0°F-2.2°C 25.2°F-3.8°C 89% 0.7 mph WSW1.1 kmh WSW 3.1 mph5.0 kmh 30.14 in1020.7 mb 0.00 in0.0 mm 0.00 in/hr0.0 mm/hr 0.00 in0.0 mm
09:40 AM 27.9°F-2.3°C 25.3°F-3.7°C 90% Calm Calm 2.2 mph3.5 kmh 30.14 in1020.7 mb 0.00 in0.0 mm 0.00 in/hr0.0 mm/hr 0.00 in0.0 mm
09:35 AM 27.5°F-2.5°C 25.0°F-3.9°C 90% Calm Calm 3.1 mph5.0 kmh 30.14 in1020.7 mb 0.00 in0.0 mm 0.00 in/hr0.0 mm/hr 0.00 in0.0 mm
09:30 AM 27.3°F-2.6°C 24.8°F-4.0°C 90% Calm Calm 3.1 mph5.0 kmh 30.14 in1020.7 mb 0.00 in0.0 mm 0.00 in/hr0.0 mm/hr 0.00 in0.0 mm
09:25 AM 27.1°F-2.7°C 24.6°F-4.1°C 90% Calm Calm 1.6 mph2.6 kmh 30.14 in1020.7 mb 0.00 in0.0 mm 0.00 in/hr0.0 mm/hr 0.00 in0.0 mm
09:20 AM 27.3°F-2.6°C 25.1°F-3.8°C 91% Calm Calm 0.7 mph1.1 kmh 30.15 in1021.0 mb 0.00 in0.0 mm 0.00 in/hr0.0 mm/hr 0.00 in0.0 mm
09:15 AM 27.1°F-2.7°C 24.9°F-3.9°C 91% Calm Calm 0.7 mph1.1 kmh 30.14 in1020.7 mb 0.00 in0.0 mm 0.00 in/hr0.0 mm/hr 0.00 in0.0 mm
09:10 AM 27.1°F-2.7°C 24.9°F-3.9°C 91% Calm Calm 0.7 mph1.1 kmh 30.15 in1021.0 mb 0.00 in0.0 mm 0.00 in/hr0.0 mm/hr 0.00 in0.0 mm
09:05 AM 26.8°F-2.9°C 24.8°F-4.0°C 92% Calm Calm -- 30.15 in1021.0 mb 0.00 in0.0 mm 0.00 in/hr0.0 mm/hr 0.00 in0.0 mm
09:00 AM 26.8°F-2.9°C 24.8°F-4.0°C 92% Calm Calm -- 30.15 in1021.0 mb 0.00 in0.0 mm 0.00 in/hr0.0 mm/hr 0.00 in0.0 mm
08:55 AM 26.6°F-3.0°C 24.6°F-4.1°C 92% Calm Calm -- 30.15 in1021.0 mb 0.00 in0.0 mm 0.00 in/hr0.0 mm/hr 0.00 in0.0 mm
08:50 AM 26.4°F-3.1°C 24.4°F-4.2°C 92% Calm Calm 0.7 mph1.1 kmh 30.16 in1021.3 mb 0.00 in0.0 mm 0.00 in/hr0.0 mm/hr 0.00 in0.0 mm
08:45 AM 26.2°F-3.2°C 24.3°F-4.3°C 92% Calm Calm 0.7 mph1.1 kmh 30.16 in1021.3 mb 0.00 in0.0 mm 0.00 in/hr0.0 mm/hr 0.00 in0.0 mm
08:40 AM 26.1°F-3.3°C 24.1°F-4.4°C 92% Calm Calm -- 30.15 in1021.0 mb 0.00 in0.0 mm 0.00 in/hr0.0 mm/hr 0.00 in0.0 mm
08:35 AM 26.1°F-3.3°C 24.1°F-4.4°C 92% Calm Calm 0.7 mph1.1 kmh 30.15 in1021.0 mb 0.00 in0.0 mm 0.00 in/hr0.0 mm/hr 0.00 in0.0 mm
08:30 AM 25.9°F-3.4°C 23.9°F-4.5°C 92% Calm Calm 0.7 mph1.1 kmh 30.15 in1021.0 mb 0.00 in0.0 mm 0.00 in/hr0.0 mm/hr 0.00 in0.0 mm
08:25 AM 25.9°F-3.4°C 24.2°F-4.3°C 93% Calm Calm 0.7 mph1.1 kmh 30.15 in1021.0 mb 0.00 in0.0 mm 0.00 in/hr0.0 mm/hr 0.00 in0.0 mm
08:20 AM 31.1°F-0.5°C 29.6°F-1.3°C 94% Calm Calm 0.7 mph1.1 kmh 30.15 in1021.0 mb 0.00 in0.0 mm 0.00 in/hr0.0 mm/hr 0.00 in0.0 mm
08:15 AM 25.9°F-3.4°C 24.4°F-4.2°C 94% Calm Calm 1.6 mph2.6 kmh 30.15 in1021.0 mb 0.00 in0.0 mm 0.00 in/hr0.0 mm/hr 0.00 in0.0 mm
08:10 AM 25.7°F-3.5°C 24.2°F-4.3°C 94% Calm Calm 1.6 mph2.6 kmh 30.15 in1021.0 mb 0.00 in0.0 mm 0.00 in/hr0.0 mm/hr 0.00 in0.0 mm
08:05 AM 25.7°F-3.5°C 24.5°F-4.2°C 95% Calm Calm 3.8 mph6.1 kmh 30.15 in1021.0 mb 0.00 in0.0 mm 0.00 in/hr0.0 mm/hr 0.00 in0.0 mm
08:00 AM 25.7°F-3.5°C 24.5°F-4.2°C 95% Calm Calm 3.8 mph6.1 kmh 30.15 in1021.0 mb 0.00 in0.0 mm 0.00 in/hr0.0 mm/hr 0.00 in0.0 mm
07:55 AM 25.7°F-3.5°C 24.5°F-4.2°C 95% Calm Calm 2.2 mph3.5 kmh 30.14 in1020.7 mb 0.00 in0.0 mm 0.00 in/hr0.0 mm/hr 0.00 in0.0 mm
07:50 AM 25.7°F-3.5°C 24.5°F-4.2°C 95% Calm Calm 2.2 mph3.5 kmh 30.14 in1020.7 mb 0.00 in0.0 mm 0.00 in/hr0.0 mm/hr 0.00 in0.0 mm
07:45 AM 25.9°F-3.4°C 24.4°F-4.2°C 94% Calm Calm 2.2 mph3.5 kmh 30.14 in1020.7 mb 0.00 in0.0 mm 0.00 in/hr0.0 mm/hr 0.00 in0.0 mm
07:40 AM 25.7°F-3.5°C 24.2°F-4.3°C 94% Calm Calm 0.7 mph1.1 kmh 30.14 in1020.7 mb 0.00 in0.0 mm 0.00 in/hr0.0 mm/hr 0.00 in0.0 mm
07:35 AM 25.9°F-3.4°C 24.2°F-4.3°C 93% Calm Calm 1.6 mph2.6 kmh 30.14 in1020.7 mb 0.00 in0.0 mm 0.00 in/hr0.0 mm/hr 0.00 in0.0 mm
07:30 AM 25.9°F-3.4°C 23.9°F-4.5°C 92% Calm Calm 3.8 mph6.1 kmh 30.14 in1020.7 mb 0.00 in0.0 mm 0.00 in/hr0.0 mm/hr 0.00 in0.0 mm
07:25 AM 25.9°F-3.4°C 23.6°F-4.7°C 91% Calm Calm 3.8 mph6.1 kmh 30.14 in1020.7 mb 0.00 in0.0 mm 0.00 in/hr0.0 mm/hr 0.00 in0.0 mm
07:20 AM 25.9°F-3.4°C 23.6°F-4.7°C 91% Calm Calm 3.1 mph5.0 kmh 30.15 in1021.0 mb 0.00 in0.0 mm 0.00 in/hr0.0 mm/hr 0.00 in0.0 mm
07:15 AM 25.7°F-3.5°C 23.7°F-4.6°C 92% Calm Calm 0.7 mph1.1 kmh 30.14 in1020.7 mb 0.00 in0.0 mm 0.00 in/hr0.0 mm/hr 0.00 in0.0 mm
07:10 AM 25.7°F-3.5°C 23.7°F-4.6°C 92% Calm Calm 0.7 mph1.1 kmh 30.14 in1020.7 mb 0.00 in0.0 mm 0.00 in/hr0.0 mm/hr 0.00 in0.0 mm
07:05 AM 25.7°F-3.5°C 23.7°F-4.6°C 92% Calm Calm 2.2 mph3.5 kmh 30.14 in1020.7 mb 0.00 in0.0 mm 0.00 in/hr0.0 mm/hr 0.00 in0.0 mm
07:00 AM 25.7°F-3.5°C 23.7°F-4.6°C 92% Calm Calm 2.2 mph3.5 kmh 30.15 in1021.0 mb 0.00 in0.0 mm 0.00 in/hr0.0 mm/hr 0.00 in0.0 mm
06:55 AM 25.5°F-3.6°C 23.8°F-4.6°C 93% Calm Calm 0.7 mph1.1 kmh 30.14 in1020.7 mb 0.00 in0.0 mm 0.00 in/hr0.0 mm/hr 0.00 in0.0 mm
06:50 AM 25.5°F-3.6°C 23.8°F-4.6°C 93% Calm Calm 1.6 mph2.6 kmh 30.15 in1021.0 mb 0.00 in0.0 mm 0.00 in/hr0.0 mm/hr 0.00 in0.0 mm
06:45 AM 25.5°F-3.6°C 23.8°F-4.6°C 93% Calm Calm 1.6 mph2.6 kmh 30.15 in1021.0 mb 0.00 in0.0 mm 0.00 in/hr0.0 mm/hr 0.00 in0.0 mm
06:40 AM 25.5°F-3.6°C 24.1°F-4.4°C 94% Calm Calm 0.7 mph1.1 kmh 30.15 in1021.0 mb 0.00 in0.0 mm 0.00 in/hr0.0 mm/hr 0.00 in0.0 mm
06:35 AM 25.5°F-3.6°C 24.1°F-4.4°C 94% Calm Calm 0.7 mph1.1 kmh 30.15 in1021.0 mb 0.00 in0.0 mm 0.00 in/hr0.0 mm/hr 0.00 in0.0 mm
06:30 AM 25.3°F-3.7°C 24.1°F-4.4°C 95% Calm Calm 0.7 mph1.1 kmh 30.14 in1020.7 mb 0.00 in0.0 mm 0.00 in/hr0.0 mm/hr 0.00 in0.0 mm
06:25 AM 25.2°F-3.8°C 24.4°F-4.2°C 97% Calm Calm 0.7 mph1.1 kmh 30.14 in1020.7 mb 0.00 in0.0 mm 0.00 in/hr0.0 mm/hr 0.00 in0.0 mm
06:20 AM 25.2°F-3.8°C 24.4°F-4.2°C 97% Calm Calm -- 30.14 in1020.7 mb 0.00 in0.0 mm 0.00 in/hr0.0 mm/hr 0.00 in0.0 mm
06:15 AM 25.0°F-3.9°C 24.3°F-4.3°C 97% Calm Calm 0.7 mph1.1 kmh 30.15 in1021.0 mb 0.00 in0.0 mm 0.00 in/hr0.0 mm/hr 0.00 in0.0 mm
06:10 AM 24.8°F-4.0°C 24.1°F-4.4°C 97% Calm Calm 0.7 mph1.1 kmh 30.14 in1020.7 mb 0.00 in0.0 mm 0.00 in/hr0.0 mm/hr 0.00 in0.0 mm
06:05 AM 24.4°F-4.2°C 23.5°F-4.7°C 96% Calm Calm -- 30.15 in1021.0 mb 0.00 in0.0 mm 0.00 in/hr0.0 mm/hr 0.00 in0.0 mm
06:00 AM 24.4°F-4.2°C 23.5°F-4.7°C 96% Calm Calm -- 30.15 in1021.0 mb 0.00 in0.0 mm 0.00 in/hr0.0 mm/hr 0.00 in0.0 mm
05:55 AM 24.3°F-4.3°C 23.1°F-4.9°C 95% Calm Calm 0.7 mph1.1 kmh 30.15 in1021.0 mb 0.00 in0.0 mm 0.00 in/hr0.0 mm/hr 0.00 in0.0 mm
05:50 AM 24.1°F-4.4°C 22.9°F-5.1°C 95% Calm Calm 2.2 mph3.5 kmh 30.13 in1020.3 mb 0.00 in0.0 mm 0.00 in/hr0.0 mm/hr 0.00 in0.0 mm
05:45 AM 24.1°F-4.4°C 22.9°F-5.1°C 95% Calm Calm 2.2 mph3.5 kmh 30.13 in1020.3 mb 0.00 in0.0 mm 0.00 in/hr0.0 mm/hr 0.00 in0.0 mm
05:40 AM 24.3°F-4.3°C 23.1°F-4.9°C 95% Calm Calm 0.7 mph1.1 kmh 30.14 in1020.7 mb 0.00 in0.0 mm 0.00 in/hr0.0 mm/hr 0.00 in0.0 mm
05:35 AM 24.1°F-4.4°C 22.9°F-5.1°C 95% Calm Calm 1.6 mph2.6 kmh 30.13 in1020.3 mb 0.00 in0.0 mm 0.00 in/hr0.0 mm/hr 0.00 in0.0 mm
05:30 AM 24.1°F-4.4°C 22.9°F-5.1°C 95% Calm Calm 1.6 mph2.6 kmh 30.14 in1020.7 mb 0.00 in0.0 mm 0.00 in/hr0.0 mm/hr 0.00 in0.0 mm
05:25 AM 23.9°F-4.5°C 22.7°F-5.2°C 95% Calm Calm 1.6 mph2.6 kmh 30.14 in1020.7 mb 0.00 in0.0 mm 0.00 in/hr0.0 mm/hr 0.00 in0.0 mm
05:20 AM 23.9°F-4.5°C 22.9°F-5.1°C 96% Calm Calm 1.6 mph2.6 kmh 30.14 in1020.7 mb 0.00 in0.0 mm 0.00 in/hr0.0 mm/hr 0.00 in0.0 mm
05:15 AM 24.1°F-4.4°C 23.4°F-4.8°C 97% Calm Calm 1.6 mph2.6 kmh 30.13 in1020.3 mb 0.00 in0.0 mm 0.00 in/hr0.0 mm/hr 0.00 in0.0 mm
05:10 AM 23.9°F-4.5°C 22.9°F-5.1°C 96% Calm Calm 0.7 mph1.1 kmh 30.13 in1020.3 mb 0.00 in0.0 mm 0.00 in/hr0.0 mm/hr 0.00 in0.0 mm
05:05 AM 24.3°F-4.3°C 23.1°F-4.9°C 95% Calm Calm -- 30.13 in1020.3 mb 0.00 in0.0 mm 0.00 in/hr0.0 mm/hr 0.00 in0.0 mm
05:00 AM 24.3°F-4.3°C 23.1°F-4.9°C 95% Calm Calm -- 30.11 in1019.6 mb 0.00 in0.0 mm 0.00 in/hr0.0 mm/hr 0.00 in0.0 mm
04:55 AM 24.4°F-4.2°C 23.0°F-5.0°C 94% Calm Calm -- 30.11 in1019.6 mb 0.00 in0.0 mm 0.00 in/hr0.0 mm/hr 0.00 in0.0 mm
04:50 AM 24.8°F-4.0°C 23.1°F-4.9°C 93% Calm Calm -- 30.11 in1019.6 mb 0.00 in0.0 mm 0.00 in/hr0.0 mm/hr 0.00 in0.0 mm
04:45 AM 25.2°F-3.8°C 23.4°F-4.8°C 93% Calm Calm -- 30.11 in1019.6 mb 0.00 in0.0 mm 0.00 in/hr0.0 mm/hr 0.00 in0.0 mm
04:40 AM 25.5°F-3.6°C 23.8°F-4.6°C 93% Calm Calm -- 30.11 in1019.6 mb 0.00 in0.0 mm 0.00 in/hr0.0 mm/hr 0.00 in0.0 mm
04:35 AM 25.9°F-3.4°C 24.4°F-4.2°C 94% Calm Calm 2.2 mph3.5 kmh 30.11 in1019.6 mb 0.00 in0.0 mm 0.00 in/hr0.0 mm/hr 0.00 in0.0 mm
04:30 AM 25.9°F-3.4°C 24.4°F-4.2°C 94% Calm Calm 2.2 mph3.5 kmh 30.12 in1020.0 mb 0.00 in0.0 mm 0.00 in/hr0.0 mm/hr 0.00 in0.0 mm
04:25 AM 21.9°F-5.6°C 20.5°F-6.4°C 94% Calm Calm 1.6 mph2.6 kmh 30.12 in1020.0 mb 0.00 in0.0 mm 0.00 in/hr0.0 mm/hr 0.00 in0.0 mm
04:20 AM 26.4°F-3.1°C 25.5°F-3.6°C 96% Calm Calm 2.2 mph3.5 kmh 30.13 in1020.3 mb 0.00 in0.0 mm 0.00 in/hr0.0 mm/hr 0.00 in0.0 mm
04:15 AM 26.4°F-3.1°C 25.5°F-3.6°C 96% Calm Calm 3.1 mph5.0 kmh 30.13 in1020.3 mb 0.00 in0.0 mm 0.00 in/hr0.0 mm/hr 0.00 in0.0 mm
04:10 AM 26.2°F-3.2°C 25.3°F-3.7°C 96% Calm Calm 3.1 mph5.0 kmh 30.13 in1020.3 mb 0.00 in0.0 mm 0.00 in/hr0.0 mm/hr 0.00 in0.0 mm
04:05 AM 26.4°F-3.1°C 25.5°F-3.6°C 96% Calm Calm 3.8 mph6.1 kmh 30.13 in1020.3 mb 0.00 in0.0 mm 0.00 in/hr0.0 mm/hr 0.00 in0.0 mm
04:00 AM 26.4°F-3.1°C 25.2°F-3.8°C 95% Calm Calm 3.8 mph6.1 kmh 30.14 in1020.7 mb 0.00 in0.0 mm 0.00 in/hr0.0 mm/hr 0.00 in0.0 mm
03:55 AM 26.4°F-3.1°C 25.2°F-3.8°C 95% 0.7 mph NNE1.1 kmh NNE 3.8 mph6.1 kmh 30.14 in1020.7 mb 0.00 in0.0 mm 0.00 in/hr0.0 mm/hr 0.00 in0.0 mm
03:50 AM 26.4°F-3.1°C 24.9°F-3.9°C 94% 0.7 mph NNE1.1 kmh NNE 2.2 mph3.5 kmh 30.13 in1020.3 mb 0.00 in0.0 mm 0.00 in/hr0.0 mm/hr 0.00 in0.0 mm
03:45 AM 26.4°F-3.1°C 24.9°F-3.9°C 94% Calm Calm 4.5 mph7.2 kmh 30.13 in1020.3 mb 0.00 in0.0 mm 0.00 in/hr0.0 mm/hr 0.00 in0.0 mm
03:40 AM 26.6°F-3.0°C 25.1°F-3.8°C 94% Calm Calm 4.5 mph7.2 kmh 30.12 in1020.0 mb 0.00 in0.0 mm 0.00 in/hr0.0 mm/hr 0.00 in0.0 mm
03:35 AM 26.6°F-3.0°C 25.1°F-3.8°C 94% Calm Calm 4.5 mph7.2 kmh 30.13 in1020.3 mb 0.00 in0.0 mm 0.00 in/hr0.0 mm/hr 0.00 in0.0 mm
03:30 AM 26.6°F-3.0°C 24.9°F-3.9°C 93% Calm Calm 3.8 mph6.1 kmh 30.13 in1020.3 mb 0.00 in0.0 mm 0.00 in/hr0.0 mm/hr 0.00 in0.0 mm
03:25 AM 26.6°F-3.0°C 25.1°F-3.8°C 94% 0.7 mph N1.1 kmh N 3.8 mph6.1 kmh 30.13 in1020.3 mb 0.00 in0.0 mm 0.00 in/hr0.0 mm/hr 0.00 in0.0 mm
03:20 AM 26.6°F-3.0°C 24.9°F-3.9°C 93% Calm Calm 3.1 mph5.0 kmh 30.12 in1020.0 mb 0.00 in0.0 mm 0.00 in/hr0.0 mm/hr 0.00 in0.0 mm
03:15 AM 26.6°F-3.0°C 24.9°F-3.9°C 93% Calm Calm 3.1 mph5.0 kmh 30.12 in1020.0 mb 0.00 in0.0 mm 0.00 in/hr0.0 mm/hr 0.00 in0.0 mm
03:10 AM 26.6°F-3.0°C 24.9°F-3.9°C 93% Calm Calm 2.2 mph3.5 kmh 30.11 in1019.6 mb 0.00 in0.0 mm 0.00 in/hr0.0 mm/hr 0.00 in0.0 mm
03:05 AM 26.6°F-3.0°C 25.1°F-3.8°C 94% Calm Calm 3.1 mph5.0 kmh 30.12 in1020.0 mb 0.00 in0.0 mm 0.00 in/hr0.0 mm/hr 0.00 in0.0 mm
03:00 AM 26.6°F-3.0°C 25.1°F-3.8°C 94% Calm Calm 3.1 mph5.0 kmh 30.12 in1020.0 mb 0.00 in0.0 mm 0.00 in/hr0.0 mm/hr 0.00 in0.0 mm
02:55 AM 26.8°F-2.9°C 25.6°F-3.6°C 95% Calm Calm 3.1 mph5.0 kmh 30.12 in1020.0 mb 0.00 in0.0 mm 0.00 in/hr0.0 mm/hr 0.00 in0.0 mm
02:50 AM 26.8°F-2.9°C 25.6°F-3.6°C 95% Calm Calm 3.1 mph5.0 kmh 30.12 in1020.0 mb 0.00 in0.0 mm 0.00 in/hr0.0 mm/hr 0.00 in0.0 mm
02:45 AM 26.8°F-2.9°C 25.6°F-3.6°C 95% Calm Calm 3.1 mph5.0 kmh 30.12 in1020.0 mb 0.00 in0.0 mm 0.00 in/hr0.0 mm/hr 0.00 in0.0 mm
02:40 AM 26.8°F-2.9°C 25.3°F-3.7°C 94% 0.7 mph NNE1.1 kmh NNE 3.1 mph5.0 kmh 30.13 in1020.3 mb 0.00 in0.0 mm 0.00 in/hr0.0 mm/hr 0.00 in0.0 mm
02:35 AM 26.8°F-2.9°C 25.3°F-3.7°C 94% Calm Calm 2.2 mph3.5 kmh 30.13 in1020.3 mb 0.00 in0.0 mm 0.00 in/hr0.0 mm/hr 0.00 in0.0 mm
02:30 AM 26.8°F-2.9°C 25.3°F-3.7°C 94% Calm Calm 2.2 mph3.5 kmh 30.12 in1020.0 mb 0.00 in0.0 mm 0.00 in/hr0.0 mm/hr 0.00 in0.0 mm
02:25 AM 26.8°F-2.9°C 25.3°F-3.7°C 94% Calm Calm 0.7 mph1.1 kmh 30.13 in1020.3 mb 0.00 in0.0 mm 0.00 in/hr0.0 mm/hr 0.00 in0.0 mm
02:20 AM 15.3°F-9.3°C 13.9°F-10.1°C 94% Calm Calm -- 30.13 in1020.3 mb 0.00 in0.0 mm 0.00 in/hr0.0 mm/hr 0.00 in0.0 mm
02:15 AM 26.8°F-2.9°C 25.3°F-3.7°C 94% Calm Calm 0.7 mph1.1 kmh 30.13 in1020.3 mb 0.00 in0.0 mm 0.00 in/hr0.0 mm/hr 0.00 in0.0 mm
02:10 AM 26.8°F-2.9°C 25.3°F-3.7°C 94% Calm Calm 0.7 mph1.1 kmh 30.12 in1020.0 mb 0.00 in0.0 mm 0.00 in/hr0.0 mm/hr 0.00 in0.0 mm
02:05 AM 26.8°F-2.9°C 25.3°F-3.7°C 94% Calm Calm 0.7 mph1.1 kmh 30.13 in1020.3 mb 0.00 in0.0 mm 0.00 in/hr0.0 mm/hr 0.00 in0.0 mm
02:00 AM 26.8°F-2.9°C 25.3°F-3.7°C 94% Calm Calm -- 30.13 in1020.3 mb 0.00 in0.0 mm 0.00 in/hr0.0 mm/hr 0.00 in0.0 mm
01:55 AM 26.8°F-2.9°C 25.3°F-3.7°C 94% Calm Calm -- 30.12 in1020.0 mb 0.00 in0.0 mm 0.00 in/hr0.0 mm/hr 0.00 in0.0 mm
01:50 AM 26.8°F-2.9°C 25.6°F-3.6°C 95% Calm Calm 0.7 mph1.1 kmh 30.13 in1020.3 mb 0.00 in0.0 mm 0.00 in/hr0.0 mm/hr 0.00 in0.0 mm
01:45 AM 26.8°F-2.9°C 25.3°F-3.7°C 94% Calm Calm 0.7 mph1.1 kmh 30.13 in1020.3 mb 0.00 in0.0 mm 0.00 in/hr0.0 mm/hr 0.00 in0.0 mm
01:40 AM 26.8°F-2.9°C 25.3°F-3.7°C 94% Calm Calm 0.7 mph1.1 kmh 30.14 in1020.7 mb 0.00 in0.0 mm 0.00 in/hr0.0 mm/hr 0.00 in0.0 mm
01:35 AM 26.8°F-2.9°C 25.3°F-3.7°C 94% Calm Calm -- 30.14 in1020.7 mb 0.00 in0.0 mm 0.00 in/hr0.0 mm/hr 0.00 in0.0 mm
01:30 AM 26.8°F-2.9°C 25.3°F-3.7°C 94% Calm Calm 1.6 mph2.6 kmh 30.14 in1020.7 mb 0.00 in0.0 mm 0.00 in/hr0.0 mm/hr 0.00 in0.0 mm
01:25 AM 26.8°F-2.9°C 25.3°F-3.7°C 94% Calm Calm 3.1 mph5.0 kmh 30.13 in1020.3 mb 0.00 in0.0 mm 0.00 in/hr0.0 mm/hr 0.00 in0.0 mm
01:20 AM 26.8°F-2.9°C 25.3°F-3.7°C 94% Calm Calm 3.1 mph5.0 kmh 30.13 in1020.3 mb 0.00 in0.0 mm 0.00 in/hr0.0 mm/hr 0.00 in0.0 mm
01:15 AM 26.8°F-2.9°C 25.0°F-3.9°C 93% Calm Calm 3.1 mph5.0 kmh 30.13 in1020.3 mb 0.00 in0.0 mm 0.00 in/hr0.0 mm/hr 0.00 in0.0 mm
01:10 AM 27.0°F-2.8°C 25.2°F-3.8°C 93% Calm Calm 0.7 mph1.1 kmh 30.14 in1020.7 mb 0.00 in0.0 mm 0.00 in/hr0.0 mm/hr 0.00 in0.0 mm
01:05 AM 27.0°F-2.8°C 25.2°F-3.8°C 93% Calm Calm 3.1 mph5.0 kmh 30.14 in1020.7 mb 0.00 in0.0 mm 0.00 in/hr0.0 mm/hr 0.00 in0.0 mm
01:00 AM 27.0°F-2.8°C 25.2°F-3.8°C 93% Calm Calm 3.1 mph5.0 kmh 30.13 in1020.3 mb 0.00 in0.0 mm 0.00 in/hr0.0 mm/hr 0.00 in0.0 mm
12:55 AM 27.0°F-2.8°C 25.2°F-3.8°C 93% Calm Calm 3.1 mph5.0 kmh 30.13 in1020.3 mb 0.00 in0.0 mm 0.00 in/hr0.0 mm/hr 0.00 in0.0 mm
12:50 AM 27.0°F-2.8°C 25.0°F-3.9°C 92% Calm Calm 1.6 mph2.6 kmh 30.13 in1020.3 mb 0.00 in0.0 mm 0.00 in/hr0.0 mm/hr 0.00 in0.0 mm
12:45 AM 27.0°F-2.8°C 24.7°F-4.1°C 91% Calm Calm 1.6 mph2.6 kmh 30.14 in1020.7 mb 0.00 in0.0 mm 0.00 in/hr0.0 mm/hr 0.00 in0.0 mm
12:40 AM 27.0°F-2.8°C 24.7°F-4.1°C 91% Calm Calm 0.7 mph1.1 kmh 30.13 in1020.3 mb 0.00 in0.0 mm 0.00 in/hr0.0 mm/hr 0.00 in0.0 mm
12:35 AM 27.0°F-2.8°C 24.2°F-4.3°C 89% Calm Calm 4.5 mph7.2 kmh 30.13 in1020.3 mb 0.00 in0.0 mm 0.00 in/hr0.0 mm/hr 0.00 in0.0 mm
12:30 AM 27.0°F-2.8°C 24.2°F-4.3°C 89% Calm Calm 4.5 mph7.2 kmh 30.13 in1020.3 mb 0.00 in0.0 mm 0.00 in/hr0.0 mm/hr 0.00 in0.0 mm
12:25 AM 27.0°F-2.8°C 24.4°F-4.2°C 90% Calm Calm 3.8 mph6.1 kmh 30.13 in1020.3 mb 0.00 in0.0 mm 0.00 in/hr0.0 mm/hr 0.00 in0.0 mm
12:20 AM 26.8°F-2.9°C 24.0°F-4.4°C 89% Calm Calm 3.1 mph5.0 kmh 30.13 in1020.3 mb 0.00 in0.0 mm 0.00 in/hr0.0 mm/hr 0.00 in0.0 mm
12:15 AM 27.0°F-2.8°C 24.2°F-4.3°C 89% Calm Calm 3.1 mph5.0 kmh 30.13 in1020.3 mb 0.00 in0.0 mm 0.00 in/hr0.0 mm/hr 0.00 in0.0 mm
12:10 AM 27.0°F-2.8°C 23.9°F-4.5°C 88% Calm Calm 3.8 mph6.1 kmh 30.13 in1020.3 mb 0.00 in0.0 mm 0.00 in/hr0.0 mm/hr 0.00 in0.0 mm
12:05 AM 8.8°F-12.9°C 5.8°F-14.6°C 87% Calm Calm 3.8 mph6.1 kmh 30.13 in1020.3 mb 0.00 in0.0 mm 0.00 in/hr0.0 mm/hr 0.00 in0.0 mm
12:00 AM 27.0°F-2.8°C 23.9°F-4.5°C 88% Calm Calm 3.8 mph6.1 kmh 30.14 in1020.7 mb 0.00 in0.0 mm 0.00 in/hr0.0 mm/hr 0.00 in0.0 mm